Cedar Park's Hourly Summary for Monday, July 9, 2018
Hour Temp
(f)
RH
(%)
Solar Rad.
(MJ/m2)
Rainfall
(in)
Wind
(mph)
7/9/2018 12:00 AM 74 98 0 0 0.16
7/9/2018 1:00 AM 73 98 0 0 0.07
7/9/2018 2:00 AM 72 99 0 0 0.08
7/9/2018 3:00 AM 72 99 0 0 0.08
7/9/2018 4:00 AM 71 99 0 0 0.02
7/9/2018 5:00 AM 71 99 0 0 0.01
7/9/2018 6:00 AM 71 100 0.01 0 0
7/9/2018 7:00 AM 72 100 0.16 0 0
7/9/2018 8:00 AM 72 99 0.16 0.95 0
7/9/2018 9:00 AM 71 100 0.15 0.11 1.97
7/9/2018 10:00 AM 73 100 0.48 0.05 0.18
7/9/2018 11:00 AM 74 100 1.27 0.01 0.28
7/9/2018 12:00 PM 78 96 2.11 0 0.28
7/9/2018 1:00 PM 78 82 2.11 0 3.41
7/9/2018 2:00 PM 78 95 0.95 0.04 3.41
7/9/2018 3:00 PM 74 97 0.17 0.02 1.69
7/9/2018 4:00 PM 74 98 0.3 0.03 2.06
7/9/2018 5:00 PM 74 98 0.39 0 2.3
7/9/2018 6:00 PM 75 96 0.39 0 2.3
7/9/2018 7:00 PM 75 96 0.37 0 2.12
7/9/2018 8:00 PM 75 97 0.27 0 2.12
7/9/2018 9:00 PM 75 98 0.05 0 2.11
7/9/2018 10:00 PM 73 99 0 0 1.8
7/9/2018 11:00 PM 72 99 0 0 0.02
Data Summary 73 97 9.34 1.21 1.10